sensor_id;sensor_type;location;lat;lon;timestamp;pressure;altitude;pressure_sealevel;temperature;humidity
58955;BME280;45815;52.334;5.024;2023-04-27T00:02:07;102167.56;;;4.81;100.00
58955;BME280;45815;52.334;5.024;2023-04-27T00:04:32;102175.19;;;4.78;100.00
58955;BME280;45815;52.334;5.024;2023-04-27T00:06:58;102170.47;;;4.73;100.00
58955;BME280;45815;52.334;5.024;2023-04-27T00:09:23;102169.56;;;4.72;100.00
58955;BME280;45815;52.334;5.024;2023-04-27T00:11:48;102170.38;;;4.71;100.00
58955;BME280;45815;52.334;5.024;2023-04-27T00:14:14;102170.38;;;4.71;100.00
58955;BME280;45815;52.334;5.024;2023-04-27T00:16:39;102165.97;;;4.70;100.00
58955;BME280;45815;52.334;5.024;2023-04-27T00:19:05;102177.06;;;4.68;100.00
58955;BME280;45815;52.334;5.024;2023-04-27T00:21:31;102169.09;;;4.64;100.00
58955;BME280;45815;52.334;5.024;2023-04-27T00:23:56;102167.97;;;4.61;100.00
58955;BME280;45815;52.334;5.024;2023-04-27T00:26:21;102167.78;;;4.58;100.00
58955;BME280;45815;52.334;5.024;2023-04-27T00:28:49;102169.50;;;4.57;100.00
58955;BME280;45815;52.334;5.024;2023-04-27T00:31:14;102166.78;;;4.56;100.00
58955;BME280;45815;52.334;5.024;2023-04-27T00:33:39;102159.56;;;4.52;100.00
58955;BME280;45815;52.334;5.024;2023-04-27T00:36:05;102159.56;;;4.52;100.00
58955;BME280;45815;52.334;5.024;2023-04-27T00:38:31;102164.59;;;4.49;100.00
58955;BME280;45815;52.334;5.024;2023-04-27T00:41:04;102164.59;;;4.49;100.00
58955;BME280;45815;52.334;5.024;2023-04-27T00:43:29;102162.59;;;4.44;100.00
58955;BME280;45815;52.334;5.024;2023-04-27T00:45:55;102164.22;;;4.42;100.00
58955;BME280;45815;52.334;5.024;2023-04-27T00:48:21;102167.59;;;4.41;100.00
58955;BME280;45815;52.334;5.024;2023-04-27T00:50:47;102154.00;;;4.32;100.00
58955;BME280;45815;52.334;5.024;2023-04-27T00:53:13;102166.59;;;4.39;100.00
58955;BME280;45815;52.334;5.024;2023-04-27T00:55:40;102164.69;;;4.37;100.00
58955;BME280;45815;52.334;5.024;2023-04-27T00:58:07;102165.41;;;4.34;100.00
58955;BME280;45815;52.334;5.024;2023-04-27T01:00:35;102166.22;;;4.33;100.00
58955;BME280;45815;52.334;5.024;2023-04-27T01:03:00;102172.19;;;4.32;100.00
58955;BME280;45815;52.334;5.024;2023-04-27T01:05:27;102151.50;;;4.20;100.00
58955;BME280;45815;52.334;5.024;2023-04-27T01:07:52;102166.69;;;4.28;100.00
58955;BME280;45815;52.334;5.024;2023-04-27T01:10:19;102173.41;;;4.24;100.00
58955;BME280;45815;52.334;5.024;2023-04-27T01:12:44;102170.50;;;4.19;100.00
58955;BME280;45815;52.334;5.024;2023-04-27T01:15:10;102163.47;;;4.18;100.00
58955;BME280;45815;52.334;5.024;2023-04-27T01:17:35;102168.47;;;4.15;100.00
58955;BME280;45815;52.334;5.024;2023-04-27T01:20:03;102172.78;;;4.15;100.00
58955;BME280;45815;52.334;5.024;2023-04-27T01:22:31;102167.16;;;4.09;100.00
58955;BME280;45815;52.334;5.024;2023-04-27T01:24:57;102168.28;;;4.12;100.00
58955;BME280;45815;52.334;5.024;2023-04-27T01:27:22;102161.09;;;4.08;100.00
58955;BME280;45815;52.334;5.024;2023-04-27T01:29:48;102161.97;;;4.09;100.00
58955;BME280;45815;52.334;5.024;2023-04-27T01:32:13;102156.00;;;4.10;100.00
58955;BME280;45815;52.334;5.024;2023-04-27T01:34:38;102158.78;;;4.13;100.00
58955;BME280;45815;52.334;5.024;2023-04-27T01:37:04;102144.59;;;4.08;100.00
58955;BME280;45815;52.334;5.024;2023-04-27T01:39:29;102147.09;;;4.06;100.00
58955;BME280;45815;52.334;5.024;2023-04-27T01:41:55;102148.88;;;4.07;100.00
58955;BME280;45815;52.334;5.024;2023-04-27T01:44:20;102141.19;;;4.09;100.00
58955;BME280;45815;52.334;5.024;2023-04-27T01:46:48;102139.28;;;4.06;100.00
58955;BME280;45815;52.334;5.024;2023-04-27T01:49:13;102132.31;;;4.05;100.00
58955;BME280;45815;52.334;5.024;2023-04-27T01:51:38;102132.31;;;4.05;100.00
58955;BME280;45815;52.334;5.024;2023-04-27T01:54:04;102133.97;;;4.05;100.00
58955;BME280;45815;52.334;5.024;2023-04-27T01:56:30;102137.41;;;4.04;100.00
58955;BME280;45815;52.334;5.024;2023-04-27T01:58:55;102137.19;;;4.00;100.00
58955;BME280;45815;52.334;5.024;2023-04-27T02:01:21;102135.56;;;4.02;100.00
58955;BME280;45815;52.334;5.024;2023-04-27T02:03:46;102134.59;;;4.00;100.00
58955;BME280;45815;52.334;5.024;2023-04-27T02:06:12;102138.09;;;4.01;100.00
58955;BME280;45815;52.334;5.024;2023-04-27T02:08:38;102130.38;;;4.02;100.00
58955;BME280;45815;52.334;5.024;2023-04-27T02:11:06;102135.38;;;3.99;100.00
58955;BME280;45815;52.334;5.024;2023-04-27T02:13:31;102126.81;;;4.00;100.00
58955;BME280;45815;52.334;5.024;2023-04-27T02:15:56;102125.56;;;3.95;100.00
58955;BME280;45815;52.334;5.024;2023-04-27T02:18:22;102132.47;;;3.95;100.00
58955;BME280;45815;52.334;5.024;2023-04-27T02:20:48;102130.69;;;3.94;100.00
58955;BME280;45815;52.334;5.024;2023-04-27T02:23:14;102132.97;;;3.89;100.00
58955;BME280;45815;52.334;5.024;2023-04-27T02:25:41;102132.97;;;3.89;100.00
58955;BME280;45815;52.334;5.024;2023-04-27T02:28:10;102136.28;;;3.87;100.00
58955;BME280;45815;52.334;5.024;2023-04-27T02:30:36;102126.78;;;3.87;100.00
58955;BME280;45815;52.334;5.024;2023-04-27T02:33:01;102125.88;;;3.87;100.00
58955;BME280;45815;52.334;5.024;2023-04-27T02:35:27;102125.78;;;3.85;100.00
58955;BME280;45815;52.334;5.024;2023-04-27T02:37:52;102122.97;;;3.82;100.00
58955;BME280;45815;52.334;5.024;2023-04-27T02:40:17;102120.38;;;3.82;100.00
58955;BME280;45815;52.334;5.024;2023-04-27T02:42:43;102115.97;;;3.81;100.00
58955;BME280;45815;52.334;5.024;2023-04-27T02:45:10;102123.06;;;3.84;100.00
58955;BME280;45815;52.334;5.024;2023-04-27T02:47:35;102118.78;;;3.84;100.00
58955;BME280;45815;52.334;5.024;2023-04-27T02:50:01;102102.19;;;3.69;100.00
58955;BME280;45815;52.334;5.024;2023-04-27T02:52:26;102120.16;;;3.79;100.00
58955;BME280;45815;52.334;5.024;2023-04-27T02:54:52;102121.09;;;3.79;100.00
58955;BME280;45815;52.334;5.024;2023-04-27T02:57:17;102124.47;;;3.78;100.00
58955;BME280;45815;52.334;5.024;2023-04-27T02:59:42;102128.66;;;3.76;100.00
58955;BME280;45815;52.334;5.024;2023-04-27T03:02:08;102126.97;;;3.77;100.00
58955;BME280;45815;52.334;5.024;2023-04-27T03:04:33;102119.97;;;3.76;100.00
58955;BME280;45815;52.334;5.024;2023-04-27T03:07:01;102123.38;;;3.75;100.00
58955;BME280;45815;52.334;5.024;2023-04-27T03:09:28;102131.94;;;3.74;100.00
58955;BME280;45815;52.334;5.024;2023-04-27T03:11:56;102138.72;;;3.72;100.00
58955;BME280;45815;52.334;5.024;2023-04-27T03:14:21;102136.75;;;3.68;100.00
58955;BME280;45815;52.334;5.024;2023-04-27T03:16:47;102139.22;;;3.66;100.00
58955;BME280;45815;52.334;5.024;2023-04-27T03:19:12;102143.41;;;3.64;100.00
58955;BME280;45815;52.334;5.024;2023-04-27T03:21:38;102130.50;;;3.52;100.00
58955;BME280;45815;52.334;5.024;2023-04-27T03:24:04;102146.25;;;3.55;100.00
58955;BME280;45815;52.334;5.024;2023-04-27T03:26:29;102149.47;;;3.51;100.00
58955;BME280;45815;52.334;5.024;2023-04-27T03:28:56;102129.53;;;3.38;100.00
58955;BME280;45815;52.334;5.024;2023-04-27T03:31:21;102138.66;;;3.45;100.00
58955;BME280;45815;52.334;5.024;2023-04-27T03:33:46;102140.03;;;3.40;100.00
58955;BME280;45815;52.334;5.024;2023-04-27T03:36:13;102134.84;;;3.40;100.00
58955;BME280;45815;52.334;5.024;2023-04-27T03:38:40;102132.63;;;3.33;100.00
58955;BME280;45815;52.334;5.024;2023-04-27T03:41:05;102136.25;;;3.35;100.00
58955;BME280;45815;52.334;5.024;2023-04-27T03:43:31;102135.31;;;3.34;100.00
58955;BME280;45815;52.334;5.024;2023-04-27T03:45:56;102138.03;;;3.36;100.00
58955;BME280;45815;52.334;5.024;2023-04-27T03:48:22;102126.22;;;3.28;100.00
58955;BME280;45815;52.334;5.024;2023-04-27T03:50:49;102116.44;;;3.24;100.00
58955;BME280;45815;52.334;5.024;2023-04-27T03:53:14;102122.03;;;3.30;100.00
58955;BME280;45815;52.334;5.024;2023-04-27T03:55:41;102132.84;;;3.36;100.00
58955;BME280;45815;52.334;5.024;2023-04-27T03:58:08;102131.03;;;3.35;100.00
58955;BME280;45815;52.334;5.024;2023-04-27T04:00:44;102139.59;;;3.34;100.00
58955;BME280;45815;52.334;5.024;2023-04-27T04:03:10;102141.19;;;3.32;100.00
58955;BME280;45815;52.334;5.024;2023-04-27T04:05:36;102145.38;;;3.30;100.00
58955;BME280;45815;52.334;5.024;2023-04-27T04:08:01;102145.16;;;3.27;100.00
58955;BME280;45815;52.334;5.024;2023-04-27T04:10:27;102145.97;;;3.26;100.00
58955;BME280;45815;52.334;5.024;2023-04-27T04:12:53;102136.38;;;3.25;100.00
58955;BME280;45815;52.334;5.024;2023-04-27T04:15:18;102143.25;;;3.24;100.00
58955;BME280;45815;52.334;5.024;2023-04-27T04:17:44;102138.06;;;3.24;100.00
58955;BME280;45815;52.334;5.024;2023-04-27T04:20:12;102140.56;;;3.23;100.00
58955;BME280;45815;52.334;5.024;2023-04-27T04:22:37;102152.50;;;3.21;100.00
58955;BME280;45815;52.334;5.024;2023-04-27T04:25:03;102149.50;;;3.14;100.00
58955;BME280;45815;52.334;5.024;2023-04-27T04:27:29;102154.13;;;3.19;100.00
58955;BME280;45815;52.334;5.024;2023-04-27T04:29:55;102154.13;;;3.19;100.00
58955;BME280;45815;52.334;5.024;2023-04-27T04:32:22;102162.22;;;3.23;100.00
58955;BME280;45815;52.334;5.024;2023-04-27T04:34:48;102160.94;;;3.30;100.00
58955;BME280;45815;52.334;5.024;2023-04-27T04:37:18;102164.78;;;3.35;100.00
58955;BME280;45815;52.334;5.024;2023-04-27T04:39:44;102164.97;;;3.38;100.00
58955;BME280;45815;52.334;5.024;2023-04-27T04:42:09;102167.09;;;3.44;100.00
58955;BME280;45815;52.334;5.024;2023-04-27T04:44:35;102175.19;;;3.48;100.00
58955;BME280;45815;52.334;5.024;2023-04-27T04:47:01;102180.00;;;3.55;100.00
58955;BME280;45815;52.334;5.024;2023-04-27T04:49:26;102177.66;;;3.58;100.00
58955;BME280;45815;52.334;5.024;2023-04-27T04:51:52;102174.94;;;3.57;100.00
58955;BME280;45815;52.334;5.024;2023-04-27T04:54:17;102172.22;;;3.55;100.00
58955;BME280;45815;52.334;5.024;2023-04-27T04:56:42;102165.44;;;3.57;100.00
58955;BME280;45815;52.334;5.024;2023-04-27T04:59:08;102172.47;;;3.58;100.00
58955;BME280;45815;52.334;5.024;2023-04-27T05:01:33;102170.88;;;3.61;100.00
58955;BME280;45815;52.334;5.024;2023-04-27T05:03:59;102161.38;;;3.61;100.00
58955;BME280;45815;52.334;5.024;2023-04-27T05:06:24;102161.25;;;3.59;100.00
58955;BME280;45815;52.334;5.024;2023-04-27T05:08:50;102169.25;;;3.63;100.00
58955;BME280;45815;52.334;5.024;2023-04-27T05:11:16;102168.28;;;3.61;100.00
58955;BME280;45815;52.334;5.024;2023-04-27T05:13:41;102160.00;;;3.66;100.00
58955;BME280;45815;52.334;5.024;2023-04-27T05:16:07;102164.69;;;3.72;100.00
58955;BME280;45815;52.334;5.024;2023-04-27T05:18:33;102169.31;;;3.76;100.00
58955;BME280;45815;52.334;5.024;2023-04-27T05:20:59;102173.91;;;3.80;100.00
58955;BME280;45815;52.334;5.024;2023-04-27T05:23:24;102180.31;;;3.85;100.00
58955;BME280;45815;52.334;5.024;2023-04-27T05:25:50;102162.84;;;3.83;100.00
58955;BME280;45815;52.334;5.024;2023-04-27T05:28:16;102176.63;;;3.95;100.00
58955;BME280;45815;52.334;5.024;2023-04-27T05:30:41;102171.13;;;3.90;100.00
58955;BME280;45815;52.334;5.024;2023-04-27T05:33:07;102186.63;;;4.02;100.00
58955;BME280;45815;52.334;5.024;2023-04-27T05:35:32;102193.16;;;4.09;100.00
58955;BME280;45815;52.334;5.024;2023-04-27T05:37:58;102186.56;;;4.14;100.00
58955;BME280;45815;52.334;5.024;2023-04-27T05:40:24;102167.38;;;4.12;100.00
58955;BME280;45815;52.334;5.024;2023-04-27T05:42:49;102184.69;;;4.25;100.00
58955;BME280;45815;52.334;5.024;2023-04-27T05:45:15;102178.78;;;4.27;100.00
58955;BME280;45815;52.334;5.024;2023-04-27T05:47:40;102174.91;;;4.34;100.00
58955;BME280;45815;52.334;5.024;2023-04-27T05:50:07;102167.69;;;4.43;100.00
58955;BME280;45815;52.334;5.024;2023-04-27T05:52:32;102179.19;;;4.60;100.00
58955;BME280;45815;52.334;5.024;2023-04-27T05:54:59;102173.41;;;4.64;100.00
58955;BME280;45815;52.334;5.024;2023-04-27T05:57:25;102181.56;;;4.70;100.00
58955;BME280;45815;52.334;5.024;2023-04-27T05:59:51;102177.19;;;4.82;100.00
58955;BME280;45815;52.334;5.024;2023-04-27T06:02:17;102173.47;;;4.92;100.00
58955;BME280;45815;52.334;5.024;2023-04-27T06:04:43;102171.16;;;4.97;100.00
58955;BME280;45815;52.334;5.024;2023-04-27T06:07:10;102176.94;;;5.06;100.00
58955;BME280;45815;52.334;5.024;2023-04-27T06:09:36;102179.13;;;5.13;100.00
58955;BME280;45815;52.334;5.024;2023-04-27T06:12:03;102155.91;;;5.03;100.00
58955;BME280;45815;52.334;5.024;2023-04-27T06:14:29;102154.28;;;5.05;100.00
58955;BME280;45815;52.334;5.024;2023-04-27T06:16:55;102169.00;;;5.18;100.00
58955;BME280;45815;52.334;5.024;2023-04-27T06:19:20;102178.97;;;5.25;100.00
58955;BME280;45815;52.334;5.024;2023-04-27T06:21:46;102175.72;;;5.29;100.00
58955;BME280;45815;52.334;5.024;2023-04-27T06:24:11;102173.50;;;5.35;100.00
58955;BME280;45815;52.334;5.024;2023-04-27T06:26:36;102175.69;;;5.42;100.00
58955;BME280;45815;52.334;5.024;2023-04-27T06:29:02;102176.97;;;5.49;100.00
58955;BME280;45815;52.334;5.024;2023-04-27T06:31:28;102178.34;;;5.57;100.00
58955;BME280;45815;52.334;5.024;2023-04-27T06:33:54;102172.59;;;5.63;100.00
58955;BME280;45815;52.334;5.024;2023-04-27T06:36:19;102174.66;;;5.68;100.00
58955;BME280;45815;52.334;5.024;2023-04-27T06:38:45;102173.25;;;5.74;100.00
58955;BME280;45815;52.334;5.024;2023-04-27T06:41:10;102178.19;;;5.84;100.00
58955;BME280;45815;52.334;5.024;2023-04-27T06:43:36;102179.47;;;5.90;100.00
58955;BME280;45815;52.334;5.024;2023-04-27T06:46:02;102174.75;;;5.98;100.00
58955;BME280;45815;52.334;5.024;2023-04-27T06:48:27;102172.56;;;6.06;100.00
58955;BME280;45815;52.334;5.024;2023-04-27T06:50:53;102170.44;;;6.13;100.00
58955;BME280;45815;52.334;5.024;2023-04-27T06:53:18;102174.38;;;6.22;100.00
58955;BME280;45815;52.334;5.024;2023-04-27T06:55:43;102170.53;;;6.30;100.00
58955;BME280;45815;52.334;5.024;2023-04-27T06:58:09;102168.50;;;6.41;100.00
58955;BME280;45815;52.334;5.024;2023-04-27T07:00:34;102165.63;;;6.51;100.00
58955;BME280;45815;52.334;5.024;2023-04-27T07:03:00;102173.94;;;6.60;100.00
58955;BME280;45815;52.334;5.024;2023-04-27T07:05:25;102167.56;;;6.70;100.00
58955;BME280;45815;52.334;5.024;2023-04-27T07:07:51;102174.91;;;6.77;100.00
58955;BME280;45815;52.334;5.024;2023-04-27T07:10:17;102180.72;;;6.88;100.00
58955;BME280;45815;52.334;5.024;2023-04-27T07:12:42;102182.78;;;6.93;100.00
58955;BME280;45815;52.334;5.024;2023-04-27T07:15:08;102191.19;;;7.04;100.00
58955;BME280;45815;52.334;5.024;2023-04-27T07:17:34;102182.00;;;7.11;100.00
58955;BME280;45815;52.334;5.024;2023-04-27T07:20:00;102180.78;;;7.21;100.00
58955;BME280;45815;52.334;5.024;2023-04-27T07:22:26;102175.91;;;7.27;100.00
58955;BME280;45815;52.334;5.024;2023-04-27T07:24:53;102178.91;;;7.34;100.00
58955;BME280;45815;52.334;5.024;2023-04-27T07:27:18;102168.66;;;7.37;100.00
58955;BME280;45815;52.334;5.024;2023-04-27T07:29:44;102180.53;;;7.49;100.00
58955;BME280;45815;52.334;5.024;2023-04-27T07:32:10;102179.00;;;7.52;100.00
58955;BME280;45815;52.334;5.024;2023-04-27T07:34:35;102174.31;;;7.63;100.00
58955;BME280;45815;52.334;5.024;2023-04-27T07:37:01;102163.41;;;7.70;100.00
58955;BME280;45815;52.334;5.024;2023-04-27T07:39:27;102170.38;;;7.88;100.00
58955;BME280;45815;52.334;5.024;2023-04-27T07:41:53;102168.75;;;7.90;100.00
58955;BME280;45815;52.334;5.024;2023-04-27T07:44:19;102169.69;;;8.08;100.00
58955;BME280;45815;52.334;5.024;2023-04-27T07:46:45;102174.88;;;8.24;100.00
58955;BME280;45815;52.334;5.024;2023-04-27T07:49:13;102178.09;;;8.37;100.00
58955;BME280;45815;52.334;5.024;2023-04-27T07:51:39;102176.94;;;8.48;100.00
58955;BME280;45815;52.334;5.024;2023-04-27T07:54:04;102178.28;;;8.58;100.00
58955;BME280;45815;52.334;5.024;2023-04-27T07:56:31;102181.34;;;8.67;100.00
58955;BME280;45815;52.334;5.024;2023-04-27T07:58:57;102178.53;;;8.82;100.00
58955;BME280;45815;52.334;5.024;2023-04-27T08:01:22;102174.81;;;8.95;100.00
58955;BME280;45815;52.334;5.024;2023-04-27T08:03:48;102169.16;;;9.05;100.00
58955;BME280;45815;52.334;5.024;2023-04-27T08:06:13;102168.03;;;9.18;100.00
58955;BME280;45815;52.334;5.024;2023-04-27T08:08:38;102170.31;;;9.29;100.00
58955;BME280;45815;52.334;5.024;2023-04-27T08:11:08;102166.63;;;9.45;100.00
58955;BME280;45815;52.334;5.024;2023-04-27T08:13:33;102176.28;;;9.66;100.00
58955;BME280;45815;52.334;5.024;2023-04-27T08:15:59;102175.22;;;9.82;100.00
58955;BME280;45815;52.334;5.024;2023-04-27T08:18:25;102176.53;;;9.91;100.00
58955;BME280;45815;52.334;5.024;2023-04-27T08:20:51;102171.94;;;10.07;100.00
58955;BME280;45815;52.334;5.024;2023-04-27T08:23:16;102172.56;;;10.22;100.00
58955;BME280;45815;52.334;5.024;2023-04-27T08:25:42;102180.28;;;10.39;100.00
58955;BME280;45815;52.334;5.024;2023-04-27T08:28:07;102175.31;;;10.45;100.00
58955;BME280;45815;52.334;5.024;2023-04-27T08:30:33;102168.28;;;10.66;100.00
58955;BME280;45815;52.334;5.024;2023-04-27T08:32:58;102168.16;;;10.86;100.00
58955;BME280;45815;52.334;5.024;2023-04-27T08:35:24;102174.22;;;11.06;100.00
58955;BME280;45815;52.334;5.024;2023-04-27T08:37:49;102165.91;;;11.17;100.00
58955;BME280;45815;52.334;5.024;2023-04-27T08:40:15;102162.75;;;11.28;100.00
58955;BME280;45815;52.334;5.024;2023-04-27T08:42:58;102158.69;;;11.60;100.00
58955;BME280;45815;52.334;5.024;2023-04-27T08:45:25;102157.50;;;11.76;100.00
58955;BME280;45815;52.334;5.024;2023-04-27T08:47:51;102164.88;;;11.86;100.00
58955;BME280;45815;52.334;5.024;2023-04-27T08:50:17;102159.00;;;11.93;100.00
58955;BME280;45815;52.334;5.024;2023-04-27T08:52:44;102168.03;;;12.00;100.00
58955;BME280;45815;52.334;5.024;2023-04-27T08:55:10;102163.16;;;12.12;100.00
58955;BME280;45815;52.334;5.024;2023-04-27T08:57:35;102172.16;;;12.44;100.00
58955;BME280;45815;52.334;5.024;2023-04-27T09:00:01;102170.31;;;12.69;100.00
58955;BME280;45815;52.334;5.024;2023-04-27T09:02:32;102167.69;;;12.98;100.00
58955;BME280;45815;52.334;5.024;2023-04-27T09:04:57;102158.38;;;13.09;100.00
58955;BME280;45815;52.334;5.024;2023-04-27T09:07:23;102159.25;;;13.09;96.84
58955;BME280;45815;52.334;5.024;2023-04-27T09:09:49;102159.19;;;13.08;96.14
58955;BME280;45815;52.334;5.024;2023-04-27T09:12:20;102146.19;;;13.14;96.00
58955;BME280;45815;52.334;5.024;2023-04-27T09:14:59;102148.69;;;13.09;90.00
58955;BME280;45815;52.334;5.024;2023-04-27T09:17:26;102149.25;;;12.99;90.87
58955;BME280;45815;52.334;5.024;2023-04-27T09:20:03;102145.19;;;13.10;88.56
58955;BME280;45815;52.334;5.024;2023-04-27T09:22:41;102144.25;;;13.07;85.02
58955;BME280;45815;52.334;5.024;2023-04-27T09:25:07;102147.16;;;13.16;88.93
58955;BME280;45815;52.334;5.024;2023-04-27T09:27:32;102137.53;;;13.18;87.68
58955;BME280;45815;52.334;5.024;2023-04-27T09:29:57;102142.97;;;13.24;87.53
58955;BME280;45815;52.334;5.024;2023-04-27T09:32:23;102144.97;;;13.32;85.42
58955;BME280;45815;52.334;5.024;2023-04-27T09:34:48;102146.22;;;13.44;86.15
58955;BME280;45815;52.334;5.024;2023-04-27T09:37:14;102150.53;;;13.72;86.56
58955;BME280;45815;52.334;5.024;2023-04-27T09:39:41;102143.34;;;14.00;86.48
58955;BME280;45815;52.334;5.024;2023-04-27T09:42:06;102137.72;;;14.21;87.41
58955;BME280;45815;52.334;5.024;2023-04-27T09:44:33;102140.59;;;14.32;83.51
58955;BME280;45815;52.334;5.024;2023-04-27T09:46:59;102142.69;;;14.45;83.81
58955;BME280;45815;52.334;5.024;2023-04-27T09:49:26;102120.16;;;14.60;85.70
58955;BME280;45815;52.334;5.024;2023-04-27T09:51:55;102127.22;;;14.61;83.67
58955;BME280;45815;52.334;5.024;2023-04-27T09:54:25;102134.69;;;14.42;76.55
58955;BME280;45815;52.334;5.024;2023-04-27T09:57:02;102129.22;;;14.34;77.72
58955;BME280;45815;52.334;5.024;2023-04-27T09:59:39;102134.00;;;14.49;83.86
58955;BME280;45815;52.334;5.024;2023-04-27T10:02:15;102125.50;;;14.63;78.23
58955;BME280;45815;52.334;5.024;2023-04-27T10:07:18;102125.44;;;15.01;79.40
58955;BME280;45815;52.334;5.024;2023-04-27T10:09:48;102125.84;;;15.19;78.07
58955;BME280;45815;52.334;5.024;2023-04-27T10:12:21;102114.19;;;15.08;72.77
58955;BME280;45815;52.334;5.024;2023-04-27T10:14:52;102118.50;;;15.04;77.25
58955;BME280;45815;52.334;5.024;2023-04-27T10:17:18;102113.97;;;14.98;81.55
58955;BME280;45815;52.334;5.024;2023-04-27T10:19:59;102118.34;;;14.96;78.57
58955;BME280;45815;52.334;5.024;2023-04-27T10:25:18;102123.09;;;15.14;71.13
58955;BME280;45815;52.334;5.024;2023-04-27T10:27:54;102116.31;;;15.27;76.59
58955;BME280;45815;52.334;5.024;2023-04-27T10:30:22;102116.50;;;15.36;77.31
58955;BME280;45815;52.334;5.024;2023-04-27T10:32:56;102120.09;;;15.38;66.62
58955;BME280;45815;52.334;5.024;2023-04-27T10:35:34;102122.16;;;15.12;62.20
58955;BME280;45815;52.334;5.024;2023-04-27T10:40:32;102114.81;;;15.40;65.80
58955;BME280;45815;52.334;5.024;2023-04-27T10:43:10;102117.72;;;15.54;61.65
58955;BME280;45815;52.334;5.024;2023-04-27T10:45:36;102118.63;;;15.56;69.42
58955;BME280;45815;52.334;5.024;2023-04-27T10:48:01;102122.25;;;15.61;69.30
58955;BME280;45815;52.334;5.024;2023-04-27T10:50:27;102118.13;;;15.74;66.92
58955;BME280;45815;52.334;5.024;2023-04-27T10:52:52;102116.78;;;15.97;66.57
58955;BME280;45815;52.334;5.024;2023-04-27T10:55:21;102116.88;;;16.03;65.00
58955;BME280;45815;52.334;5.024;2023-04-27T10:57:52;102116.31;;;15.71;59.41
58955;BME280;45815;52.334;5.024;2023-04-27T11:00:25;102109.19;;;15.69;64.40
58955;BME280;45815;52.334;5.024;2023-04-27T11:02:52;102099.09;;;15.95;68.02
58955;BME280;45815;52.334;5.024;2023-04-27T11:05:25;102102.25;;;16.27;69.76
58955;BME280;45815;52.334;5.024;2023-04-27T11:08:11;102084.34;;;16.70;65.28
58955;BME280;45815;52.334;5.024;2023-04-27T11:10:46;102099.94;;;17.13;65.88
58955;BME280;45815;52.334;5.024;2023-04-27T11:13:18;102083.06;;;17.04;61.98
58955;BME280;45815;52.334;5.024;2023-04-27T11:18:12;102075.28;;;17.23;63.95
58955;BME280;45815;52.334;5.024;2023-04-27T11:20:38;102076.16;;;17.20;60.64
58955;BME280;45815;52.334;5.024;2023-04-27T11:23:03;102077.28;;;17.42;67.93
58955;BME280;45815;52.334;5.024;2023-04-27T11:25:30;102075.56;;;17.47;66.07
58955;BME280;45815;52.334;5.024;2023-04-27T11:27:56;102079.00;;;17.37;60.14
58955;BME280;45815;52.334;5.024;2023-04-27T11:30:22;102079.94;;;17.42;64.35
58955;BME280;45815;52.334;5.024;2023-04-27T11:32:48;102074.03;;;17.74;68.03
58955;BME280;45815;52.334;5.024;2023-04-27T11:35:14;102063.59;;;17.86;60.60
58955;BME280;45815;52.334;5.024;2023-04-27T11:37:40;102080.50;;;17.99;55.24
58955;BME280;45815;52.334;5.024;2023-04-27T11:40:07;102070.84;;;18.12;52.43
58955;BME280;45815;52.334;5.024;2023-04-27T11:42:33;102064.56;;;18.02;52.14
58955;BME280;45815;52.334;5.024;2023-04-27T11:45:00;102072.50;;;17.98;52.19
58955;BME280;45815;52.334;5.024;2023-04-27T11:47:30;102067.88;;;17.75;48.13
58955;BME280;45815;52.334;5.024;2023-04-27T11:49:58;102072.66;;;18.14;53.53
58955;BME280;45815;52.334;5.024;2023-04-27T11:52:28;102061.25;;;18.29;51.16
58955;BME280;45815;52.334;5.024;2023-04-27T11:54:54;102051.50;;;18.31;49.22
58955;BME280;45815;52.334;5.024;2023-04-27T11:57:29;102048.88;;;18.36;52.28
58955;BME280;45815;52.334;5.024;2023-04-27T11:59:56;102052.59;;;18.64;52.14
58955;BME280;45815;52.334;5.024;2023-04-27T12:02:27;102063.22;;;18.66;50.86
58955;BME280;45815;52.334;5.024;2023-04-27T12:04:52;102066.00;;;18.81;53.59
58955;BME280;45815;52.334;5.024;2023-04-27T12:07:18;102055.38;;;18.83;49.83
58955;BME280;45815;52.334;5.024;2023-04-27T12:09:44;102051.84;;;18.90;49.55
58955;BME280;45815;52.334;5.024;2023-04-27T12:12:11;102059.78;;;18.79;53.48
58955;BME280;45815;52.334;5.024;2023-04-27T12:14:43;102056.97;;;18.56;54.67
58955;BME280;45815;52.334;5.024;2023-04-27T12:17:08;102048.03;;;18.45;53.06
58955;BME280;45815;52.334;5.024;2023-04-27T12:19:34;102043.78;;;18.76;52.68
58955;BME280;45815;52.334;5.024;2023-04-27T12:22:01;102048.34;;;19.02;54.42
58955;BME280;45815;52.334;5.024;2023-04-27T12:24:27;102035.97;;;19.17;51.60
58955;BME280;45815;52.334;5.024;2023-04-27T12:26:52;102034.22;;;19.23;50.25
58955;BME280;45815;52.334;5.024;2023-04-27T12:29:17;102034.22;;;19.35;49.09
58955;BME280;45815;52.334;5.024;2023-04-27T12:31:43;102029.78;;;19.40;47.56
58955;BME280;45815;52.334;5.024;2023-04-27T12:34:08;102021.81;;;19.49;46.38
58955;BME280;45815;52.334;5.024;2023-04-27T12:36:34;102024.50;;;19.55;46.75
58955;BME280;45815;52.334;5.024;2023-04-27T12:39:20;102028.91;;;19.64;42.94
58955;BME280;45815;52.334;5.024;2023-04-27T12:41:47;102035.19;;;19.83;44.93
58955;BME280;45815;52.334;5.024;2023-04-27T12:44:15;102031.63;;;19.92;47.97
58955;BME280;45815;52.334;5.024;2023-04-27T12:46:41;102030.72;;;20.10;46.49
58955;BME280;45815;52.334;5.024;2023-04-27T12:49:08;102023.63;;;20.02;46.02
58955;BME280;45815;52.334;5.024;2023-04-27T12:51:34;102027.16;;;20.11;46.04
58955;BME280;45815;52.334;5.024;2023-04-27T12:54:01;102020.94;;;20.16;43.72
58955;BME280;45815;52.334;5.024;2023-04-27T12:56:27;102025.41;;;20.03;46.45
58955;BME280;45815;52.334;5.024;2023-04-27T12:58:53;102025.41;;;20.00;47.32